• Join FlightAware (Why Join?)
  • Login
  • US Flag 
04:18AM EDT


 

Airport Tracker/Info


-or-


 

Live Flight TrackerFlight Track Log ✈ CTL13 ✈ 06-May-2013 ✈ KMDW - KGRR

Flight Track Log - Related Links

Times and Time Zones

All times are in EDT time to prevent confusion due to time zone crossing. See the CTL13 flight status page for this flight to view local times or setup timezone preferences in your user account.

Time Position Orientation Groundspeed Altitude Reporting Facility
EDT Latitude Longitude Course Direction KTS MPH feet Rate Location/Type
10:39PM 41.8000 -87.7167 90° East 117 135 1,900  Level Chicago TRACON
10:40PM 41.8000 -87.6667 90° East 122 140 3,000 1,080 Climbing Chicago TRACON
10:41PM 41.8000 -87.6167 90° East 125 144 4,100 900 Climbing Chicago TRACON
10:42PM 41.8006 -87.5803 89° East 125 144 4,900 420 Climbing Chicago Center
10:43PM 41.8031 -87.5267 86° East 136 157 5,000  Climbing Chicago Center
10:44PM 41.8075 -87.4531 85° East 155 178 5,000  Level Chicago Center
10:45PM 41.8119 -87.3894 85° East 165 190 5,000  Level Chicago Center
10:46PM 41.8150 -87.3267 86° East 168 193 5,000  Level Chicago Center
10:47PM 41.8172 -87.2639 87° East 169 194 5,000  Level Chicago Center
10:48PM 41.8208 -87.2014 86° East 169 194 5,000  Level Chicago Center
10:49PM 41.8239 -87.1386 86° East 169 194 5,000  Level Chicago Center
10:50PM 41.8508 -87.0917 52° Northeast 171 197 5,000  Level Chicago Center
10:51PM 41.8833 -87.0433 48° Northeast 174 200 5,000 240 Level Chicago Center
10:52PM 41.9144 -86.9989 47° Northeast 168 193 5,500 660 Climbing Chicago Center
10:53PM 41.9461 -86.9511 48° Northeast 145 167 6,400 720 Climbing Chicago Center
10:54PM 41.9722 -86.9100 49° Northeast 146 168 7,000 240 Climbing Chicago Center
10:55PM 42.0022 -86.8681 46° Northeast 153 176 7,000  Level Chicago Center
10:56PM 42.0314 -86.8217 50° Northeast 161 185 7,000  Level Chicago Center
10:58PM 42.0908 -86.7336 48° Northeast 159 183 7,100  Climbing Chicago Center
10:59PM 42.1194 -86.6894 49° Northeast 158 182 7,000  Descending Chicago Center
11:00PM 42.1489 -86.6431 49° Northeast 161 185 7,100  Climbing Chicago Center
11:01PM 42.1778 -86.6011 47° Northeast 155 178 7,100 -60 Level Chicago Center
11:02PM 42.2081 -86.5556 48° Northeast 161 185 7,000  Descending Chicago Center
11:03PM 42.2383 -86.5097 48° Northeast 163 188 7,100  Climbing Chicago Center
11:04PM 42.2694 -86.4667 46° Northeast 161 185 7,100 -60 Level Chicago Center
11:05PM 42.3025 -86.4158 49° Northeast 158 182 7,000 -60 Descending Chicago Center
11:06PM 42.3328 -86.3703 48° Northeast 163 188 7,000  Level Chicago Center
11:07PM 42.3631 -86.3275 46° Northeast 160 184 7,000  Level Chicago Center
11:08PM 42.3931 -86.2847 46° Northeast 158 182 7,000  Level Chicago Center
11:09PM 42.4233 -86.2425 46° Northeast 158 182 7,000  Level Chicago Center
11:10PM 42.4556 -86.2022 43° Northeast 158 182 7,100  Climbing Chicago Center
11:11PM 42.4875 -86.1622 43° Northeast 158 182 7,000 -60 Descending Chicago Center
11:12PM 42.5172 -86.1186 47° Northeast 158 182 7,000  Level Chicago Center
11:13PM 42.5481 -86.0764 45° Northeast 157 181 7,000  Level Chicago Center
11:14PM 42.5803 -86.0336 44° Northeast 161 185 7,000 -300 Level Chicago Center
11:15PM 42.6194 -85.9794 45° Northeast 167 192 6,500 -600 Descending Chicago Center
11:16PM 42.6544 -85.9322 45° Northeast 174 200 5,900 -600 Descending Chicago Center
11:17PM 42.6886 -85.8853 45° Northeast 175 201 5,400 -600 Descending Chicago Center
11:18PM 42.7228 -85.8414 43° Northeast 172 198 4,800 -720 Descending Chicago Center
11:19PM 42.7556 -85.7953 46° Northeast 171 197 4,000 -780 Descending Chicago Center
11:20PM 42.7883 -85.7472 47° Northeast 173 199 3,300 -600 Descending Chicago Center
11:21PM 42.8208 -85.7000 47° Northeast 172 198 2,800 -600 Descending Chicago Center
11:22PM 42.8461 -85.6494 56° Northeast 168 193 2,200 -600 Descending Chicago Center
11:23PM 42.8692 -85.6003 57° Northeast 161 185 1,600 -600 Descending Chicago Center
11:24PM 42.8744 -85.5550 81° East 137 158 1,100 -540 Descending Chicago Center
11:26PM 42.8667 -85.5167 56° Northeast  Level FlightAware Approximate
11:33PM 42.8808 -85.5228 56° Northeast  Level Estimated
11:34PM 42.8808 -85.5228 56° Northeast  Level Estimated